createdAt,value
2018-02-04T00:01:41.845Z,12.00
2018-02-04T00:04:10.061Z,8.10
2018-02-04T00:06:37.537Z,15.53
2018-02-04T00:09:05.011Z,8.83
2018-02-04T00:11:32.473Z,7.70
2018-02-04T00:13:59.958Z,12.70
2018-02-04T00:16:27.426Z,6.40
2018-02-04T00:18:54.944Z,19.80
2018-02-04T00:21:22.403Z,9.70
2018-02-04T00:23:49.861Z,8.33
2018-02-04T00:26:17.363Z,8.80
2018-02-04T00:28:44.835Z,8.70
2018-02-04T00:31:12.346Z,9.00
2018-02-04T00:33:39.830Z,7.90
2018-02-04T00:36:07.305Z,8.27
2018-02-04T00:38:34.783Z,8.80
2018-02-04T00:41:03.957Z,9.40
2018-02-04T00:43:31.430Z,7.60
2018-02-04T00:45:59.655Z,11.13
2018-02-04T00:48:27.127Z,8.67
2018-02-04T00:50:54.585Z,9.27
2018-02-04T00:53:22.061Z,10.40
2018-02-04T00:55:49.524Z,10.83
2018-02-04T00:58:17.093Z,9.67
2018-02-04T01:00:45.343Z,12.40
2018-02-04T01:03:12.827Z,10.43
2018-02-04T01:05:41.076Z,10.03
2018-02-04T01:08:08.533Z,8.30
2018-02-04T01:10:36.042Z,14.83
2018-02-04T01:13:03.505Z,12.20
2018-02-04T01:15:30.966Z,12.53
2018-02-04T01:17:58.457Z,10.90
2018-02-04T01:20:25.922Z,10.00
2018-02-04T01:22:53.416Z,12.40
2018-02-04T01:25:20.874Z,12.57
2018-02-04T01:27:49.091Z,10.77
2018-02-04T01:30:16.560Z,12.93
2018-02-04T01:32:44.050Z,10.10
2018-02-04T01:35:11.508Z,10.60
2018-02-04T01:37:38.982Z,9.87
2018-02-04T01:40:07.202Z,11.17
2018-02-04T01:42:34.994Z,9.53
2018-02-04T01:45:02.714Z,10.50
2018-02-04T01:47:30.163Z,8.40
2018-02-04T01:49:58.437Z,8.23
2018-02-04T01:52:25.894Z,8.90
2018-02-04T01:54:53.378Z,8.53
2018-02-04T01:57:20.920Z,8.80
2018-02-04T01:59:48.386Z,9.00
2018-02-04T02:02:15.870Z,7.87
2018-02-04T02:04:43.345Z,7.90
2018-02-04T02:07:10.842Z,5.33
2018-02-04T02:09:39.073Z,6.63
2018-02-04T02:12:06.565Z,8.97
2018-02-04T02:14:34.801Z,6.63
2018-02-04T02:17:02.258Z,6.57
2018-02-04T02:19:29.782Z,5.47
2018-02-04T02:21:57.353Z,4.33
2018-02-04T02:24:24.810Z,6.20
2018-02-04T02:26:52.266Z,6.20
2018-02-04T02:29:19.853Z,5.53
2018-02-04T02:31:47.334Z,4.27
2018-02-04T02:34:14.802Z,13.87
2018-02-04T02:36:42.274Z,4.97
2018-02-04T02:39:09.750Z,5.90
2018-02-04T02:41:37.234Z,4.43
2018-02-04T02:44:04.722Z,7.60
2018-02-04T02:46:32.209Z,6.07
2018-02-04T02:49:00.481Z,5.50
2018-02-04T02:51:28.705Z,4.77
2018-02-04T02:53:56.182Z,5.27
2018-02-04T02:56:24.417Z,5.40
2018-02-04T02:58:51.885Z,5.63
2018-02-04T03:01:19.364Z,5.30
2018-02-04T03:03:46.850Z,4.17
2018-02-04T03:06:14.314Z,4.27
2018-02-04T03:08:41.765Z,4.67
2018-02-04T03:11:09.266Z,5.00
2018-02-04T03:13:36.718Z,5.27
2018-02-04T03:16:04.200Z,4.53
2018-02-04T03:18:31.662Z,4.30
2018-02-04T03:20:59.149Z,5.00
2018-02-04T03:23:26.604Z,5.63
2018-02-04T03:25:54.086Z,5.10
2018-02-04T03:28:21.558Z,6.30
2018-02-04T03:30:49.057Z,4.30
2018-02-04T03:33:16.512Z,4.30
2018-02-04T03:35:43.974Z,5.17
2018-02-04T03:38:11.453Z,8.90
2018-02-04T03:40:39.670Z,3.90
2018-02-04T03:43:07.145Z,6.37
2018-02-04T03:45:34.609Z,4.93
2018-02-04T03:48:02.182Z,5.97
2018-02-04T03:50:29.658Z,4.10
2018-02-04T03:52:57.161Z,6.90
2018-02-04T03:55:24.613Z,4.60
2018-02-04T03:57:52.094Z,7.00
2018-02-04T04:00:19.561Z,4.37
2018-02-04T04:02:47.021Z,4.20
2018-02-04T04:05:14.497Z,5.73
2018-02-04T04:07:41.955Z,9.87
2018-02-04T04:10:09.590Z,4.60
2018-02-04T04:12:37.061Z,5.93
2018-02-04T04:15:04.517Z,6.30
2018-02-04T04:17:31.996Z,8.10
2018-02-04T04:19:59.458Z,6.37
2018-02-04T04:22:26.933Z,4.30
2018-02-04T04:24:54.394Z,3.37
2018-02-04T04:27:21.869Z,5.13
2018-02-04T04:29:50.098Z,5.30
2018-02-04T04:32:18.358Z,4.70
2018-02-04T04:34:45.833Z,4.17
2018-02-04T04:37:13.310Z,4.10
2018-02-04T04:39:40.802Z,4.77
2018-02-04T04:42:09.022Z,5.50
2018-02-04T04:44:36.509Z,6.27
2018-02-04T04:47:03.972Z,3.87
2018-02-04T04:49:31.460Z,4.77
2018-02-04T04:51:59.684Z,8.53
2018-02-04T04:54:27.192Z,4.70
2018-02-04T04:56:55.434Z,7.03
2018-02-04T04:59:22.909Z,5.60
2018-02-04T05:01:50.364Z,7.60
2018-02-04T05:04:17.841Z,6.70
2018-02-04T05:06:46.059Z,9.40
2018-02-04T05:09:13.589Z,6.43
2018-02-04T05:11:41.073Z,6.00
2018-02-04T05:14:08.543Z,6.00
2018-02-04T05:16:36.005Z,11.43
2018-02-04T05:19:03.517Z,6.90
2018-02-04T05:21:30.982Z,6.63
2018-02-04T05:23:58.433Z,6.03
2018-02-04T05:26:25.917Z,5.97
2018-02-04T05:28:53.401Z,7.70
2018-02-04T05:31:20.885Z,9.30
2018-02-04T05:33:48.344Z,5.13
2018-02-04T05:36:15.829Z,10.57
2018-02-04T05:38:43.313Z,5.93
2018-02-04T05:41:10.772Z,5.60
2018-02-04T05:43:38.262Z,7.07
2018-02-04T05:46:05.742Z,13.63
2018-02-04T05:48:33.202Z,3.13
2018-02-04T05:51:01.560Z,8.70
2018-02-04T05:53:29.057Z,9.57
2018-02-04T05:55:56.537Z,5.83
2018-02-04T05:58:23.991Z,10.33
2018-02-04T06:00:51.473Z,8.20
2018-02-04T06:03:18.957Z,9.67
2018-02-04T06:05:46.417Z,5.30
2018-02-04T06:08:13.874Z,6.00
2018-02-04T06:10:41.341Z,5.70
2018-02-04T06:13:08.798Z,6.60
2018-02-04T06:15:36.295Z,8.00
2018-02-04T06:18:03.745Z,7.87
2018-02-04T06:20:31.214Z,8.70
2018-02-04T06:22:58.703Z,8.37
2018-02-04T06:25:26.179Z,8.00
2018-02-04T06:27:53.629Z,6.40
2018-02-04T06:30:21.109Z,6.13
2018-02-04T06:32:49.354Z,9.90
2018-02-04T06:35:16.809Z,5.10
2018-02-04T06:37:44.281Z,8.30
2018-02-04T06:40:11.767Z,8.17
2018-02-04T06:42:40.017Z,7.70
2018-02-04T06:45:07.473Z,10.13
2018-02-04T06:47:34.992Z,6.70
2018-02-04T06:50:02.433Z,9.73
2018-02-04T06:52:29.951Z,7.60
2018-02-04T06:54:57.397Z,8.90
2018-02-04T06:57:24.866Z,10.23
2018-02-04T06:59:52.337Z,7.40
2018-02-04T07:02:19.812Z,8.10
2018-02-04T07:04:48.066Z,12.60
2018-02-04T07:07:15.541Z,12.97
2018-02-04T07:09:43.014Z,8.77
2018-02-04T07:12:10.485Z,7.33
2018-02-04T07:14:37.963Z,8.57
2018-02-04T07:17:05.430Z,7.80
2018-02-04T07:19:32.915Z,8.50
2018-02-04T07:22:00.405Z,10.77
2018-02-04T07:24:28.632Z,9.07
2018-02-04T07:26:56.101Z,12.50
2018-02-04T07:29:23.605Z,10.67
2018-02-04T07:31:51.077Z,8.50
2018-02-04T07:34:18.530Z,8.77
2018-02-04T09:28:12.527Z,4.10
2018-02-04T09:30:40.192Z,13.33
2018-02-04T09:33:08.000Z,8.57
2018-02-04T09:35:35.893Z,6.57
2018-02-04T09:38:03.578Z,5.20
2018-02-04T09:40:31.261Z,6.43
2018-02-04T09:42:58.978Z,5.03
2018-02-04T09:45:26.833Z,8.00
2018-02-04T09:47:54.523Z,7.73
2018-02-04T09:50:22.136Z,7.20
2018-02-04T09:52:50.631Z,5.97
2018-02-04T09:55:19.219Z,4.57
2018-02-04T09:57:46.944Z,6.80
2018-02-04T10:00:14.663Z,4.73
2018-02-04T10:02:42.541Z,5.90
2018-02-04T10:05:10.400Z,5.73
2018-02-04T10:07:38.041Z,3.47
2018-02-04T10:10:06.743Z,6.80
2018-02-04T10:12:34.529Z,3.10
2018-02-04T10:15:02.190Z,4.43
2018-02-04T10:17:30.177Z,3.80
2018-02-04T10:19:58.738Z,4.60
2018-02-04T10:22:26.511Z,6.47
2018-02-04T10:24:54.204Z,9.13
2018-02-04T10:27:21.904Z,5.20
2018-02-04T10:29:50.209Z,3.87
2018-02-04T10:32:18.029Z,4.70
2018-02-04T10:34:45.802Z,4.53
2018-02-04T10:37:14.103Z,4.33
2018-02-04T10:39:41.956Z,3.60
2018-02-04T10:42:09.554Z,4.67
2018-02-04T10:44:37.412Z,3.43
2018-02-04T10:47:05.308Z,5.07
2018-02-04T10:49:33.336Z,5.07
2018-02-04T10:52:03.036Z,5.30
2018-02-04T10:54:31.485Z,4.33
2018-02-04T10:56:59.338Z,6.20
2018-02-04T10:59:26.989Z,4.50
2018-02-04T11:01:54.690Z,4.30
2018-02-04T11:04:22.418Z,3.50
2018-02-04T11:06:50.229Z,3.20
2018-02-04T11:09:18.690Z,5.63
2018-02-04T11:11:46.548Z,4.73
2018-02-04T11:14:14.390Z,5.37
2018-02-04T11:16:42.124Z,6.50
2018-02-04T11:19:10.575Z,5.43
2018-02-04T11:21:38.510Z,6.27
2018-02-04T11:24:06.349Z,4.57
2018-02-04T11:26:34.163Z,4.73
2018-02-04T11:29:02.075Z,3.33
2018-02-04T11:31:29.918Z,3.83
2018-02-04T11:33:57.678Z,4.53
2018-02-04T11:36:26.200Z,4.97
2018-02-04T11:38:54.209Z,3.30
2018-02-04T11:41:21.982Z,2.97
2018-02-04T11:43:49.779Z,2.87
2018-02-04T11:46:18.474Z,3.60
2018-02-04T11:48:46.586Z,4.03
2018-02-04T11:51:14.526Z,4.03
2018-02-04T11:53:42.530Z,5.97
2018-02-04T11:56:10.406Z,3.00
2018-02-04T11:58:38.307Z,3.63
2018-02-04T12:01:07.153Z,5.03
2018-02-04T12:03:34.988Z,4.00
2018-02-04T12:06:02.973Z,9.90
2018-02-04T12:08:30.850Z,3.57
2018-02-04T12:10:58.485Z,4.27
2018-02-04T12:13:26.423Z,5.00
2018-02-04T12:15:54.166Z,6.33
2018-02-04T12:18:22.093Z,5.37
2018-02-04T12:20:50.160Z,5.20
2018-02-04T12:23:18.092Z,3.60
2018-02-04T12:25:45.836Z,5.33
2018-02-04T12:28:13.961Z,3.70
2018-02-04T12:30:41.971Z,4.80
2018-02-04T12:33:09.861Z,2.63
2018-02-04T12:35:37.901Z,6.30
2018-02-04T12:38:06.015Z,6.60
2018-02-04T12:40:33.820Z,3.47
2018-02-04T12:43:02.629Z,6.37
2018-02-04T12:45:30.689Z,6.80
2018-02-04T12:47:58.694Z,4.77
2018-02-04T12:50:26.797Z,5.83
2018-02-04T12:52:55.366Z,5.47
2018-02-04T12:55:23.384Z,4.53
2018-02-04T12:57:51.013Z,5.07
2018-02-04T13:00:19.889Z,4.50
2018-02-04T13:02:47.826Z,5.73
2018-02-04T13:05:15.721Z,3.30
2018-02-04T13:07:43.724Z,4.97
2018-02-04T13:10:11.645Z,5.07
2018-02-04T13:12:40.409Z,5.90
2018-02-04T13:15:08.322Z,4.77
2018-02-04T13:17:36.184Z,5.93
2018-02-04T13:20:03.943Z,6.10
2018-02-04T13:22:31.855Z,3.30
2018-02-04T13:24:59.725Z,6.70
2018-02-04T13:27:27.756Z,5.00
2018-02-04T13:29:55.839Z,5.00
2018-02-04T13:32:23.811Z,3.63
2018-02-04T13:34:51.598Z,4.43
2018-02-04T13:37:20.236Z,4.70
2018-02-04T13:39:48.199Z,4.53
2018-02-04T13:42:16.013Z,6.47
2018-02-04T13:44:43.860Z,12.53
2018-02-04T13:47:11.830Z,4.33
2018-02-04T13:49:40.111Z,4.70
2018-02-04T13:52:08.270Z,4.17
2018-02-04T13:54:35.979Z,4.30
2018-02-04T13:57:04.459Z,4.60
2018-02-04T13:59:33.087Z,3.63
2018-02-04T14:02:00.815Z,4.10
2018-02-04T14:04:29.325Z,4.20
2018-02-04T14:06:57.125Z,5.03
2018-02-04T14:09:24.962Z,3.77
2018-02-04T14:11:52.688Z,5.80
2018-02-04T14:14:21.322Z,7.77
2018-02-04T14:16:49.050Z,4.03
2018-02-04T14:19:17.913Z,6.30
2018-02-04T14:21:46.523Z,6.87
2018-02-04T14:24:14.280Z,6.70
2018-02-04T14:26:42.932Z,5.80
2018-02-04T14:29:11.040Z,5.90
2018-02-04T14:31:39.828Z,5.40
2018-02-04T14:34:07.739Z,6.07
2018-02-04T14:36:35.701Z,18.70
2018-02-04T14:39:03.577Z,3.60
2018-02-04T14:41:31.849Z,5.27
2018-02-04T14:43:59.701Z,4.80
2018-02-04T14:46:28.063Z,5.23
2018-02-04T14:48:55.968Z,4.30
2018-02-04T14:51:23.865Z,5.20
2018-02-04T14:53:52.392Z,6.60
2018-02-04T14:56:21.417Z,6.20
2018-02-04T14:58:49.379Z,5.30
2018-02-04T15:01:17.285Z,5.47
2018-02-04T15:03:45.091Z,6.60
2018-02-04T15:06:13.801Z,5.37
2018-02-04T15:08:41.682Z,7.50
2018-02-04T15:11:09.425Z,5.70
2018-02-04T15:13:37.352Z,7.37
2018-02-04T15:16:05.207Z,8.73
2018-02-04T15:18:33.193Z,6.37
2018-02-04T15:21:03.966Z,7.63
2018-02-04T15:23:31.968Z,9.63
2018-02-04T15:25:59.889Z,5.33
2018-02-04T15:28:27.654Z,6.50
2018-02-04T15:30:56.206Z,5.57
2018-02-04T15:33:24.055Z,5.37
2018-02-04T15:35:52.583Z,4.33
2018-02-04T15:38:21.032Z,6.97
2018-02-04T15:40:48.968Z,5.13
2018-02-04T15:43:18.037Z,5.30
2018-02-04T15:45:46.483Z,6.27
2018-02-04T15:48:14.322Z,8.13
2018-02-04T15:50:42.845Z,8.57
2018-02-04T15:53:10.746Z,6.80
2018-02-04T15:55:38.467Z,6.03
2018-02-04T15:58:06.301Z,8.87
2018-02-04T16:00:33.922Z,9.13
2018-02-04T16:03:02.530Z,5.97
2018-02-04T16:05:30.196Z,8.30
2018-02-04T16:07:58.041Z,9.90
2018-02-04T16:10:25.883Z,8.37
2018-02-04T16:12:53.771Z,9.10
2018-02-04T16:15:21.604Z,7.20
2018-02-04T16:17:49.435Z,7.50
2018-02-04T16:20:17.246Z,6.70
2018-02-04T16:22:45.815Z,15.50
2018-02-04T16:25:13.709Z,13.73
2018-02-04T16:27:42.156Z,15.50
2018-02-04T16:30:09.954Z,10.60
2018-02-04T16:32:38.484Z,17.63
2018-02-04T16:35:06.336Z,6.70
2018-02-04T16:37:34.092Z,9.23
2018-02-04T16:40:01.880Z,6.97
2018-02-04T16:42:29.643Z,9.07
2018-02-04T16:44:57.118Z,9.07
2018-02-04T16:47:24.593Z,9.53
2018-02-04T16:49:52.548Z,8.33
2018-02-04T16:52:20.339Z,7.03
2018-02-04T16:54:48.139Z,9.57
2018-02-04T16:57:15.735Z,7.90
2018-02-04T16:59:43.465Z,10.70
2018-02-04T17:02:11.887Z,7.70
2018-02-04T17:04:39.627Z,17.80
2018-02-04T17:07:07.277Z,15.10
2018-02-04T17:09:35.017Z,11.77
2018-02-04T17:12:02.800Z,11.07
2018-02-04T17:14:30.514Z,9.17
2018-02-04T17:16:58.241Z,8.43
2018-02-04T17:19:25.840Z,9.63
2018-02-04T17:21:54.321Z,6.27
2018-02-04T17:24:22.236Z,13.33
2018-02-04T17:26:49.859Z,12.77
2018-02-04T17:29:17.646Z,6.57
2018-02-04T17:31:45.567Z,10.60
2018-02-04T17:34:13.422Z,11.93
2018-02-04T17:36:41.113Z,11.93
2018-02-04T17:39:08.791Z,10.53
2018-02-04T17:41:36.760Z,13.27
2018-02-04T17:44:04.663Z,10.07
2018-02-04T17:46:33.094Z,12.07
2018-02-04T17:49:01.674Z,16.10
2018-02-04T17:51:29.355Z,11.10
2018-02-04T17:53:57.168Z,20.33
2018-02-04T17:56:24.973Z,14.73
2018-02-04T17:58:52.716Z,16.30
2018-02-04T18:01:20.630Z,14.70
2018-02-04T18:03:48.364Z,15.07
2018-02-04T18:06:16.199Z,18.20
2018-02-04T18:08:44.020Z,13.67
2018-02-04T18:11:11.724Z,17.50
2018-02-04T18:13:39.744Z,12.40
2018-02-04T18:16:07.652Z,17.03
2018-02-04T18:18:35.605Z,16.17
2018-02-04T18:21:03.248Z,16.70
2018-02-04T18:23:31.033Z,13.70
2018-02-04T18:25:58.746Z,15.90
2018-02-04T18:28:26.587Z,14.43
2018-02-04T18:30:54.404Z,16.00
2018-02-04T18:33:22.210Z,14.07
2018-02-04T18:35:49.886Z,14.30
2018-02-04T18:38:18.257Z,15.37
2018-02-04T18:40:46.408Z,14.17
2018-02-04T18:43:14.166Z,16.77
2018-02-04T18:45:41.969Z,12.80
2018-02-04T18:48:09.642Z,12.70
2018-02-04T18:50:37.378Z,16.37
2018-02-04T18:53:05.114Z,14.67
2018-02-04T18:55:32.861Z,13.50
2018-02-04T18:58:00.559Z,13.50
2018-02-04T19:00:28.292Z,19.93
2018-02-04T19:02:56.165Z,16.17
2018-02-04T19:05:23.853Z,19.60
2018-02-04T19:07:51.600Z,17.23
2018-02-04T19:10:19.458Z,16.93
2018-02-04T19:12:47.236Z,19.30
2018-02-04T19:15:15.142Z,17.23
2018-02-04T19:17:43.744Z,16.13
2018-02-04T19:20:11.511Z,22.10
2018-02-04T19:22:40.171Z,16.50
2018-02-04T19:25:07.888Z,15.10
2018-02-04T19:27:35.554Z,13.20
2018-02-04T19:30:03.272Z,18.10
2018-02-04T19:32:31.123Z,12.80
2018-02-04T19:34:59.063Z,14.37
2018-02-04T19:37:27.011Z,16.47
2018-02-04T19:39:54.672Z,17.13
2018-02-04T19:42:22.707Z,14.10
2018-02-04T19:44:50.645Z,16.60
2018-02-04T19:47:18.585Z,15.73
2018-02-04T19:49:46.523Z,14.70
2018-02-04T19:52:14.240Z,16.53
2018-02-04T19:54:42.279Z,21.23
2018-02-04T19:57:10.319Z,14.23
2018-02-04T19:59:38.978Z,20.23
2018-02-04T20:02:06.988Z,18.17
2018-02-04T20:04:34.890Z,18.23
2018-02-04T20:07:02.724Z,22.77
2018-02-04T20:09:30.743Z,20.30
2018-02-04T20:11:58.597Z,20.80
2018-02-04T20:14:26.392Z,18.53
2018-02-04T20:16:54.220Z,23.50
2018-02-04T20:19:21.885Z,22.57
2018-02-04T20:21:49.662Z,25.80
2018-02-04T20:24:17.590Z,17.93
2018-02-04T20:26:45.470Z,19.00
2018-02-04T20:29:13.203Z,26.40
2018-02-04T20:31:41.174Z,21.90
2018-02-04T20:34:20.754Z,18.70
2018-02-04T20:36:48.532Z,15.13
2018-02-04T20:39:16.509Z,19.20
2018-02-04T20:41:44.708Z,18.83
2018-02-04T20:44:12.619Z,19.57
2018-02-04T20:46:40.654Z,22.30
2018-02-04T20:49:08.603Z,21.93
2018-02-04T20:51:36.610Z,15.33
2018-02-04T20:54:04.501Z,19.90
2018-02-04T20:56:32.294Z,17.67
2018-02-04T20:59:00.056Z,17.20
2018-02-04T21:01:28.408Z,18.90
2018-02-04T21:03:56.502Z,21.23
2018-02-04T21:06:24.594Z,20.90
2018-02-04T21:08:52.397Z,18.67
2018-02-04T21:11:19.957Z,26.40
2018-02-04T21:13:47.735Z,26.07
2018-02-04T21:16:15.437Z,26.53
2018-02-04T21:18:43.446Z,28.10
2018-02-04T21:21:11.212Z,23.77
2018-02-04T21:23:38.982Z,22.00
2018-02-04T21:26:07.058Z,23.73
2018-02-04T21:28:34.676Z,25.13
2018-02-04T21:31:02.453Z,28.33
2018-02-04T21:33:30.356Z,31.20
2018-02-04T21:35:58.742Z,23.40
2018-02-04T21:38:27.579Z,25.57
2018-02-04T21:40:55.397Z,19.13
2018-02-04T21:43:23.365Z,22.97
2018-02-04T21:45:52.083Z,21.40
2018-02-04T21:48:19.773Z,23.03
2018-02-04T21:50:47.440Z,22.53
2018-02-04T21:53:15.204Z,23.97
2018-02-04T21:55:42.974Z,23.30
2018-02-04T21:58:10.678Z,29.63
2018-02-04T22:00:39.544Z,19.60
2018-02-04T22:03:07.299Z,19.97
2018-02-04T22:05:35.152Z,15.57
2018-02-04T22:08:02.853Z,18.37
2018-02-04T22:10:30.700Z,15.90
2018-02-04T22:12:58.565Z,15.70
2018-02-04T22:15:26.353Z,18.13
2018-02-04T22:17:53.993Z,19.73
2018-02-04T22:20:21.745Z,17.20
2018-02-04T22:22:49.399Z,20.60
2018-02-04T22:25:17.089Z,18.17
2018-02-04T22:27:44.970Z,23.23
2018-02-04T22:30:12.693Z,20.53
2018-02-04T22:32:40.405Z,18.87
2018-02-04T22:35:08.116Z,18.60
2018-02-04T22:37:35.856Z,16.27
2018-02-04T22:40:03.687Z,16.57
2018-02-04T22:42:31.752Z,19.57
2018-02-04T22:44:59.418Z,17.10
2018-02-04T22:47:27.190Z,19.63
2018-02-04T22:49:55.886Z,17.53
2018-02-04T22:52:23.764Z,17.27
2018-02-04T22:54:52.161Z,20.60
2018-02-04T22:57:19.873Z,24.33
2018-02-04T22:59:47.709Z,22.50
2018-02-04T23:02:15.463Z,23.17
2018-02-04T23:04:43.142Z,19.90
2018-02-04T23:07:10.971Z,22.10
2018-02-04T23:09:39.695Z,23.20
2018-02-04T23:12:07.413Z,19.20
2018-02-04T23:14:35.162Z,22.50
2018-02-04T23:17:02.823Z,25.10
2018-02-04T23:19:30.559Z,23.60
2018-02-04T23:21:58.197Z,26.00
2018-02-04T23:24:26.010Z,23.30
2018-02-04T23:26:53.814Z,25.53
2018-02-04T23:29:21.558Z,24.73
2018-02-04T23:31:49.357Z,31.70
2018-02-04T23:34:17.210Z,22.90
2018-02-04T23:36:44.935Z,26.77
2018-02-04T23:39:12.661Z,29.60
2018-02-04T23:41:41.015Z,25.23
2018-02-04T23:44:08.644Z,25.60
2018-02-04T23:46:36.445Z,27.53
2018-02-04T23:49:04.899Z,25.77
2018-02-04T23:51:32.474Z,25.53
2018-02-04T23:54:00.213Z,30.00
2018-02-04T23:56:27.949Z,30.53
2018-02-04T23:58:55.687Z,32.20
